Time;durP1;ratioP1;P1;durP2;ratioP2;P2;SDS_P1;SDS_P2;PMS_P1;PMS_P2;Temp;Humidity;BMP_temperature;BMP_pressure;BME280_temperature;BME280_humidity;BME280_pressure;Samples;Min_cycle;Max_cycle;Signal;HPM_P1;HPM_P2
2022/03/17 00:01:25;;;;;;;16.80;8.80;;;;;;;7.18;54.92;94427.81;4966435;28;20045;-75
2022/03/17 00:03:51;;;;;;;14.23;8.40;;;;;;;7.22;54.58;94405.81;4967565;28;20058;-75
2022/03/17 00:06:17;;;;;;;20.35;10.18;;;;;;;7.32;54.62;94436.69;4965729;28;20042;-75
2022/03/17 00:08:42;;;;;;;14.68;7.90;;;;;;;7.16;54.46;94403.47;4962530;28;20137;-75
2022/03/17 00:11:08;;;;;;;14.63;9.10;;;;;;;7.20;54.74;94437.03;4959900;28;20049;-75
2022/03/17 00:13:33;;;;;;;18.83;9.63;;;;;;;7.29;54.57;94435.38;4961468;28;20129;-75
2022/03/17 00:15:59;;;;;;;17.50;9.68;;;;;;;7.20;54.31;94404.50;4966754;28;20030;-75
2022/03/17 00:18:25;;;;;;;15.35;9.38;;;;;;;7.28;54.26;94435.66;4955891;28;20035;-75
2022/03/17 00:20:50;;;;;;;18.88;9.50;;;;;;;7.08;54.38;94401.44;4964459;28;20077;-75
2022/03/17 00:23:16;;;;;;;18.83;9.88;;;;;;;7.08;54.44;94406.72;4972971;28;20521;-75
2022/03/17 00:25:41;;;;;;;17.08;8.52;;;;;;;7.35;54.41;94437.97;4969349;28;20453;-76
2022/03/17 00:28:07;;;;;;;15.10;9.13;;;;;;;7.25;54.68;94423.78;4963474;28;20050;-75
2022/03/17 00:30:32;;;;;;;15.23;8.88;;;;;;;7.12;54.77;94410.38;4971823;28;20038;-76
2022/03/17 00:32:58;;;;;;;20.67;10.63;;;;;;;7.32;54.76;94428.75;4960713;28;20410;-77
2022/03/17 00:35:35;;;;;;;18.00;10.07;;;;;;;7.12;54.65;94418.31;4964203;28;20335;-75
2022/03/17 00:38:08;;;;;;;15.90;9.30;;;;;;;7.17;55.01;94431.50;4965140;28;20018;-76
2022/03/17 00:40:37;;;;;;;19.17;10.30;;;;;;;7.25;54.68;94422.97;4962310;28;20046;-75
2022/03/17 00:43:06;;;;;;;22.55;11.32;;;;;;;7.15;54.28;94404.53;4962067;28;20440;-76
2022/03/17 00:45:32;;;;;;;18.10;9.35;;;;;;;7.23;54.50;94410.03;4982132;28;20413;-75
2022/03/17 00:48:23;;;;;;;14.65;8.60;;;;;;;7.55;54.50;94438.59;4972092;28;20038;-74
2022/03/17 00:50:52;;;;;;;14.38;8.57;;;;;;;7.58;54.25;94432.75;4963133;28;20131;-75
2022/03/17 00:53:17;;;;;;;16.67;9.82;;;;;;;7.22;53.68;94355.53;4964153;28;20026;-75
2022/03/17 00:55:43;;;;;;;16.35;10.02;;;;;;;7.77;53.51;94442.69;4969017;28;20081;-75
2022/03/17 00:58:08;;;;;;;17.27;9.52;;;;;;;7.79;53.72;94443.97;4956639;28;20038;-74
2022/03/17 01:00:34;;;;;;;18.55;9.45;;;;;;;7.53;53.92;94419.56;4964343;28;20130;-73
2022/03/17 01:03:00;;;;;;;21.05;10.70;;;;;;;7.48;54.83;94448.75;4958796;28;20616;-75
2022/03/17 01:05:26;;;;;;;18.75;10.05;;;;;;;7.46;55.20;94460.66;4961993;28;20125;-75
2022/03/17 01:07:54;;;;;;;17.35;10.15;;;;;;;7.31;55.50;94461.56;4974312;28;20073;-75
2022/03/17 01:10:20;;;;;;;47.33;19.88;;;;;;;7.06;56.44;94461.75;4962080;28;20061;-75
2022/03/17 01:12:47;;;;;;;19.98;10.07;;;;;;;6.32;59.03;94452.09;4969726;28;20035;-75
2022/03/17 01:15:14;;;;;;;32.35;14.15;;;;;;;5.81;62.50;94478.63;4962503;28;20161;-74
2022/03/17 01:17:40;;;;;;;17.23;10.23;;;;;;;6.10;62.98;94486.75;4965467;28;20035;-74
2022/03/17 01:20:06;;;;;;;21.25;10.45;;;;;;;6.35;61.16;94491.19;4970985;28;20034;-75
2022/03/17 01:22:32;;;;;;;14.65;9.10;;;;;;;6.48;59.59;94474.75;4954718;28;20037;-75
2022/03/17 01:24:58;;;;;;;13.63;8.52;;;;;;;6.35;58.75;94464.78;4968170;28;20096;-75
2022/03/17 01:27:29;;;;;;;16.33;7.57;;;;;;;6.22;58.67;94483.81;4963705;28;20441;-74
2022/03/17 01:29:54;;;;;;;15.05;8.20;;;;;;;6.67;57.42;94491.56;4987192;28;20374;-74
2022/03/17 01:32:21;;;;;;;13.20;6.95;;;;;;;6.82;56.40;94462.41;4960889;28;20022;-76
2022/03/17 01:34:47;;;;;;;13.52;7.35;;;;;;;7.10;55.59;94473.34;4964348;28;20641;-75
2022/03/17 01:37:13;;;;;;;9.65;6.15;;;;;;;7.32;54.55;94476.38;4962703;28;20034;-75
2022/03/17 01:39:38;;;;;;;11.90;6.65;;;;;;;7.50;53.68;94504.81;4955514;28;21151;-75
2022/03/17 01:42:06;;;;;;;12.20;6.05;;;;;;;7.60;53.35;94504.75;4969712;28;20039;-76
2022/03/17 01:44:33;;;;;;;9.88;5.65;;;;;;;7.61;52.73;94501.03;4958380;28;20019;-75
2022/03/17 01:49:42;;;;;;;10.02;5.78;;;;;;;7.03;53.98;94504.63;4966223;28;20615;-76
2022/03/17 01:52:11;;;;;;;13.98;7.20;;;;;;;7.21;53.94;94510.06;4998933;28;20038;-74
2022/03/17 01:54:37;;;;;;;14.57;8.15;;;;;;;7.20;53.82;94513.75;4967616;28;20039;-75
2022/03/17 01:57:06;;;;;;;11.32;7.28;;;;;;;7.31;53.56;94498.59;4964812;28;20035;-74
2022/03/17 01:59:32;;;;;;;13.77;7.35;;;;;;;7.71;52.54;94505.44;4961016;28;20569;-76
2022/03/17 02:01:58;;;;;;;10.10;6.25;;;;;;;7.59;52.86;94499.72;4962288;28;20037;-73
2022/03/17 02:04:24;;;;;;;12.80;6.32;;;;;;;7.58;53.22;94503.44;4966470;28;20035;-73
2022/03/17 02:06:51;;;;;;;12.45;5.78;;;;;;;7.63;53.06;94496.22;4962239;28;20104;-72
2022/03/17 02:09:20;;;;;;;8.07;6.25;;;;;;;7.54;52.96;94458.19;4967764;28;20509;-75
2022/03/17 02:14:54;;;;;;;11.70;6.97;;;;;;;6.30;56.37;94486.72;4965953;28;20047;-76
2022/03/17 02:17:20;;;;;;;17.33;7.90;;;;;;;5.23;59.84;94460.72;4981289;28;20029;-74
2022/03/17 02:19:46;;;;;;;13.35;7.50;;;;;;;3.26;62.09;94213.59;4968281;28;20038;-75
2022/03/17 02:22:15;;;;;;;11.10;6.85;;;;;;;4.52;64.97;94481.66;4968338;28;20031;-76
2022/03/17 02:27:31;;;;;;;14.27;8.55;;;;;;;5.49;63.17;94510.56;4968856;28;20576;-75
2022/03/17 02:29:56;;;;;;;12.80;7.97;;;;;;;5.24;62.69;94502.63;4974194;28;20050;-75
2022/03/17 02:32:22;;;;;;;14.80;9.30;;;;;;;4.61;66.12;94517.78;4967018;28;20477;-75
2022/03/17 02:34:47;;;;;;;17.38;9.60;;;;;;;4.62;66.44;94505.41;4971901;28;20041;-75
2022/03/17 02:37:13;;;;;;;15.20;8.73;;;;;;;4.96;65.64;94506.56;4970246;28;20140;-76
2022/03/17 02:39:39;;;;;;;15.52;9.23;;;;;;;5.44;63.95;94521.13;4969988;28;20531;-75
2022/03/17 02:42:05;;;;;;;13.45;7.68;;;;;;;5.78;62.06;94512.66;4967444;28;20031;-76
2022/03/17 02:44:32;;;;;;;12.15;8.18;;;;;;;5.33;61.98;94514.28;4976202;28;20373;-74
2022/03/17 02:46:58;;;;;;;14.00;7.40;;;;;;;4.79;64.75;94539.47;4975374;28;20038;-75
2022/03/17 02:49:24;;;;;;;10.05;7.00;;;;;;;5.53;63.24;94521.38;4971199;28;20030;-74
2022/03/17 02:51:50;;;;;;;12.15;7.57;;;;;;;6.05;60.86;94534.28;4974671;28;20092;-76
2022/03/17 02:54:15;;;;;;;14.15;6.88;;;;;;;6.37;59.31;94534.75;4963282;28;20630;-77
2022/03/17 02:56:40;;;;;;;9.65;6.07;;;;;;;6.56;58.32;94542.91;4972232;28;20081;-75
2022/03/17 02:59:09;;;;;;;13.60;5.97;;;;;;;6.79;57.44;94542.28;4971405;28;20018;-74
2022/03/17 03:01:34;;;;;;;8.55;5.05;;;;;;;6.75;56.74;94514.03;4966967;28;20077;-75
2022/03/17 03:04:00;;;;;;;6.38;4.45;;;;;;;6.98;55.96;94531.88;4987195;28;20042;-76
2022/03/17 03:06:27;;;;;;;9.85;5.93;;;;;;;7.13;55.16;94546.88;4965513;28;20042;-76
2022/03/17 03:08:53;;;;;;;7.53;4.78;;;;;;;7.21;54.68;94549.75;4988180;28;20073;-73
2022/03/17 03:11:18;;;;;;;8.80;4.88;;;;;;;7.17;54.37;94521.47;4968407;28;20030;-75
2022/03/17 03:13:44;;;;;;;9.35;5.57;;;;;;;6.84;54.44;94486.75;4972429;28;20047;-75
2022/03/17 03:16:09;;;;;;;13.52;6.15;;;;;;;7.30;54.25;94542.00;4969625;28;20039;-77
2022/03/17 03:18:36;;;;;;;13.63;6.30;;;;;;;7.38;53.96;94549.38;4966876;28;20096;-75
2022/03/17 03:21:01;;;;;;;14.55;6.65;;;;;;;7.30;53.61;94515.53;4971606;28;20026;-75
2022/03/17 03:23:26;;;;;;;12.00;6.25;;;;;;;7.42;53.25;94531.88;4969747;28;20050;-72
2022/03/17 03:25:52;;;;;;;8.93;5.07;;;;;;;6.86;54.81;94556.00;4971275;28;20050;-74
2022/03/17 03:28:17;;;;;;;7.80;4.63;;;;;;;6.74;54.88;94549.44;4963227;28;20045;-74
2022/03/17 03:30:42;;;;;;;7.93;4.68;;;;;;;6.83;54.34;94522.19;4966638;28;20113;-75
2022/03/17 03:33:08;;;;;;;7.10;4.80;;;;;;;6.18;55.89;94535.59;4981867;28;20044;-75
2022/03/17 03:38:21;;;;;;;6.72;4.68;;;;;;;5.84;57.40;94536.16;4970821;28;20104;-75
2022/03/17 03:40:47;;;;;;;6.63;4.47;;;;;;;6.20;56.75;94558.06;4968856;28;20388;-75
2022/03/17 03:43:12;;;;;;;9.68;5.53;;;;;;;6.13;55.40;94564.63;4967608;28;20034;-74
2022/03/17 03:45:38;;;;;;;9.27;5.38;;;;;;;5.49;56.92;94546.72;4971620;28;20038;-75
2022/03/17 03:48:04;;;;;;;9.02;5.65;;;;;;;5.73;56.33;94565.44;4961751;28;20034;-74
2022/03/17 03:50:30;;;;;;;7.15;4.50;;;;;;;5.65;55.97;94542.25;4968146;28;20109;-75
2022/03/17 03:52:56;;;;;;;10.32;5.57;;;;;;;5.30;56.81;94578.09;4971727;28;20122;-74
2022/03/17 03:55:22;;;;;;;9.45;5.60;;;;;;;5.34;56.54;94579.16;4961432;28;20765;-75
2022/03/17 03:57:48;;;;;;;8.43;5.70;;;;;;;5.19;57.10;94587.03;4964214;28;20369;-72
2022/03/17 04:02:58;;;;;;;8.32;5.45;;;;;;;5.40;56.35;94585.22;4967445;28;20679;-72
2022/03/17 04:05:44;;;;;;;10.95;5.65;;;;;;;4.74;57.79;94595.59;4964860;28;20509;-75
2022/03/17 04:08:09;;;;;;;8.30;6.15;;;;;;;3.65;61.00;94582.22;4970685;28;20050;-73
2022/03/17 04:10:35;;;;;;;11.65;7.20;;;;;;;3.88;62.30;94596.88;4962676;28;20026;-74
2022/03/17 04:13:01;;;;;;;12.25;7.50;;;;;;;3.46;63.96;94615.22;4962854;28;20035;-74
2022/03/17 04:15:27;;;;;;;7.95;5.85;;;;;;;3.13;64.69;94585.44;4968673;28;20042;-75
2022/03/17 04:17:53;;;;;;;12.80;7.38;;;;;;;3.17;65.30;94612.81;4965508;28;20351;-74
2022/03/17 04:20:18;;;;;;;9.73;6.88;;;;;;;3.78;64.15;94613.38;4957581;28;20042;-76
2022/03/17 04:22:44;;;;;;;12.23;7.40;;;;;;;3.83;63.74;94621.31;4971851;28;20047;-75
2022/03/17 04:25:09;;;;;;;14.32;8.05;;;;;;;3.52;63.46;94615.00;4959380;28;20029;-74
2022/03/17 04:27:35;;;;;;;13.32;7.93;;;;;;;3.26;64.74;94636.84;4964952;28;20046;-74
2022/03/17 04:30:04;;;;;;;16.65;9.20;;;;;;;2.93;66.37;94640.41;4961148;28;20038;-74
2022/03/17 04:32:30;;;;;;;13.57;8.30;;;;;;;3.04;66.60;94649.22;4964482;28;20125;-76
2022/03/17 04:34:55;;;;;;;14.93;9.02;;;;;;;2.65;66.94;94635.31;4969784;28;20035;-74
2022/03/17 04:37:20;;;;;;;14.60;9.00;;;;;;;2.04;69.25;94626.59;4966870;28;20394;-75
2022/03/17 04:39:46;;;;;;;15.38;9.07;;;;;;;2.13;69.13;94634.88;4963523;28;20129;-75
2022/03/17 04:42:12;;;;;;;16.23;8.93;;;;;;;2.22;70.37;94663.09;4957048;28;20656;-73
2022/03/17 04:44:37;;;;;;;15.05;9.15;;;;;;;2.95;68.85;94656.72;4962103;28;20037;-75
2022/03/17 04:47:03;;;;;;;12.05;7.82;;;;;;;3.53;66.41;94642.09;4962502;28;20671;-74
2022/03/17 04:49:31;;;;;;;17.80;8.70;;;;;;;4.04;64.38;94646.75;4961785;28;20658;-73
2022/03/17 04:51:57;;;;;;;14.00;7.45;;;;;;;4.26;62.83;94657.16;4969225;28;20030;-72
2022/03/17 04:54:22;;;;;;;13.30;7.93;;;;;;;4.34;61.44;94634.88;4968750;28;20579;-74
2022/03/17 04:56:48;;;;;;;10.43;7.32;;;;;;;4.79;60.53;94664.13;4966691;28;20520;-75
2022/03/17 04:59:14;;;;;;;14.25;8.18;;;;;;;4.67;59.83;94663.53;4959386;28;20027;-74
2022/03/17 05:01:40;;;;;;;16.15;8.43;;;;;;;4.60;59.67;94657.72;4967018;28;20038;-75
2022/03/17 05:04:05;;;;;;;15.32;9.13;;;;;;;5.23;58.62;94666.44;4963239;28;20046;-74
2022/03/17 05:06:31;;;;;;;13.60;7.60;;;;;;;5.20;57.76;94630.81;4958637;28;20401;-74
2022/03/17 05:08:56;;;;;;;13.15;7.63;;;;;;;4.93;58.09;94662.63;4968574;28;20604;-75
2022/03/17 05:11:21;;;;;;;12.65;7.43;;;;;;;4.77;58.53;94673.34;4956795;28;20264;-75
2022/03/17 05:13:48;;;;;;;10.80;7.18;;;;;;;3.81;60.61;94676.03;4968168;28;20619;-75
2022/03/17 05:16:14;;;;;;;11.77;7.88;;;;;;;3.17;63.46;94662.78;4983874;28;20093;-74
2022/03/17 05:18:39;;;;;;;13.20;7.82;;;;;;;3.12;64.30;94649.56;4961628;28;20039;-74
2022/03/17 05:21:05;;;;;;;15.60;7.50;;;;;;;3.30;64.48;94680.78;4962964;28;20683;-73
2022/03/17 05:23:32;;;;;;;15.43;8.30;;;;;;;2.90;66.00;94698.69;4971262;28;20298;-74
2022/03/17 05:25:57;;;;;;;16.80;8.85;;;;;;;3.10;66.12;94709.47;4969339;28;20027;-75
2022/03/17 05:28:24;;;;;;;13.18;7.90;;;;;;;3.01;65.94;94708.31;4963462;28;20782;-72
2022/03/17 05:30:49;;;;;;;10.32;6.45;;;;;;;2.79;65.69;94681.22;4959837;28;20029;-73
2022/03/17 05:33:15;;;;;;;10.93;7.35;;;;;;;3.28;64.42;94693.38;4974738;28;20054;-75
2022/03/17 05:35:43;;;;;;;13.25;7.18;;;;;;;4.01;62.46;94689.38;4966000;28;20043;-74
2022/03/17 05:38:09;;;;;;;10.80;6.53;;;;;;;4.21;60.86;94702.69;4956788;28;20454;-74
2022/03/17 05:40:34;;;;;;;11.13;7.03;;;;;;;4.65;59.97;94710.41;4964778;28;20039;-75
2022/03/17 05:43:06;;;;;;;13.85;7.63;;;;;;;4.93;58.73;94704.00;4965701;28;20559;-74
2022/03/17 05:45:32;;;;;;;11.38;6.18;;;;;;;5.25;57.68;94723.13;4963603;28;20308;-75
2022/03/17 05:47:59;;;;;;;10.13;6.65;;;;;;;5.53;56.27;94721.91;4959523;28;20520;-73
2022/03/17 05:50:27;;;;;;;11.30;6.70;;;;;;;5.46;56.28;94734.56;4964826;28;20206;-74
2022/03/17 05:52:53;;;;;;;11.40;6.35;;;;;;;4.94;57.00;94721.41;4969711;28;20018;-75
2022/03/17 05:55:20;;;;;;;11.95;7.20;;;;;;;5.16;56.81;94731.78;4962681;28;20544;-75
2022/03/17 05:57:48;;;;;;;13.43;7.55;;;;;;;5.25;56.42;94730.25;4964074;28;20425;-75
2022/03/17 06:00:17;;;;;;;16.00;7.40;;;;;;;5.56;55.94;94734.63;4964476;28;20117;-75
2022/03/17 06:02:43;;;;;;;12.88;7.22;;;;;;;5.76;55.54;94745.22;4979248;28;20061;-75
2022/03/17 06:05:09;;;;;;;10.43;5.82;;;;;;;5.81;55.67;94747.09;4963494;28;20030;-76
2022/03/17 06:07:36;;;;;;;12.60;7.72;;;;;;;5.19;56.20;94739.22;4961494;28;20049;-75
2022/03/17 06:10:06;;;;;;;10.98;6.13;;;;;;;5.40;56.39;94746.94;4962983;28;20053;-76
2022/03/17 06:12:31;;;;;;;8.68;5.80;;;;;;;4.43;57.04;94733.44;4980779;28;20379;-75
2022/03/17 06:14:57;;;;;;;11.02;5.72;;;;;;;4.59;57.60;94745.69;4963069;28;20043;-75
2022/03/17 06:17:23;;;;;;;11.68;6.22;;;;;;;5.10;56.63;94758.13;4967330;28;20549;-76
2022/03/17 06:19:51;;;;;;;7.25;4.88;;;;;;;4.44;58.36;94761.38;4964442;28;20053;-73
2022/03/17 06:22:16;;;;;;;10.55;6.18;;;;;;;4.67;57.91;94758.41;4963877;28;20129;-75
2022/03/17 06:24:42;;;;;;;10.15;5.28;;;;;;;5.09;56.98;94759.19;4965265;28;20409;-75
2022/03/17 06:27:07;;;;;;;9.43;5.43;;;;;;;4.90;56.37;94702.66;4966972;28;20132;-76
2022/03/17 06:29:33;;;;;;;9.40;6.10;;;;;;;5.30;56.11;94751.38;4968705;28;20061;-75
2022/03/17 06:31:58;;;;;;;6.90;4.88;;;;;;;5.00;56.56;94752.81;4952778;28;20649;-75
2022/03/17 06:34:24;;;;;;;5.53;4.10;;;;;;;5.41;55.93;94764.38;4964145;28;20038;-74
2022/03/17 06:36:49;;;;;;;8.77;5.85;;;;;;;5.00;56.54;94758.06;4958528;28;20505;-72
2022/03/17 06:39:20;;;;;;;9.48;4.97;;;;;;;5.26;56.15;94781.97;4982515;28;20417;-75
2022/03/17 06:41:46;;;;;;;11.00;6.70;;;;;;;5.42;55.94;94781.78;4975639;28;20035;-72
2022/03/17 06:44:11;;;;;;;14.23;6.88;;;;;;;5.49;55.26;94773.63;4973346;28;20718;-73
2022/03/17 06:46:37;;;;;;;9.77;5.88;;;;;;;5.62;54.99;94788.22;4970548;28;20045;-75
2022/03/17 06:49:02;;;;;;;27.50;8.75;;;;;;;5.35;55.04;94761.94;4957440;28;20049;-75
2022/03/17 06:51:27;;;;;;;34.58;12.60;;;;;;;5.59;54.67;94778.94;4960141;28;20053;-75
2022/03/17 06:53:53;;;;;;;18.40;9.57;;;;;;;5.62;54.32;94767.91;4963801;28;20544;-75
2022/03/17 06:56:18;;;;;;;31.65;12.63;;;;;;;5.45;53.88;94748.81;4961931;28;20088;-74
2022/03/17 06:58:43;;;;;;;19.25;10.10;;;;;;;4.19;56.62;94689.00;4970307;28;20104;-75
2022/03/17 07:01:09;;;;;;;21.30;11.30;;;;;;;5.25;55.89;94790.91;4963443;28;20042;-74
2022/03/17 07:03:34;;;;;;;10.18;6.40;;;;;;;4.36;58.37;94803.97;4982878;28;20063;-74
2022/03/17 07:05:59;;;;;;;17.38;9.45;;;;;;;5.11;56.62;94804.56;4965492;28;20081;-75
2022/03/17 07:08:25;;;;;;;11.68;7.53;;;;;;;5.46;55.39;94795.25;4970908;28;20050;-75
2022/03/17 07:10:50;;;;;;;8.30;6.40;;;;;;;5.63;54.38;94809.03;4964614;28;20113;-76
2022/03/17 07:13:16;;;;;;;6.13;4.57;;;;;;;5.68;54.34;94811.69;4965929;28;20873;-75
2022/03/17 07:15:41;;;;;;;8.98;4.88;;;;;;;5.71;54.05;94808.56;4971628;28;20046;-74
2022/03/17 07:18:07;;;;;;;5.63;4.32;;;;;;;5.68;54.12;94801.16;4961977;28;20030;-76
2022/03/17 07:20:32;;;;;;;5.00;3.95;;;;;;;5.41;54.29;94779.41;4968530;28;20029;-75
2022/03/17 07:22:58;;;;;;;8.75;5.00;;;;;;;4.98;56.51;94817.41;4970791;28;20030;-75
2022/03/17 07:25:24;;;;;;;11.93;6.75;;;;;;;4.79;57.06;94817.00;4967987;28;20081;-74
2022/03/17 07:27:49;;;;;;;10.88;5.18;;;;;;;3.98;59.66;94823.31;4967646;28;20128;-75
2022/03/17 07:30:18;;;;;;;10.45;5.68;;;;;;;3.26;61.89;94789.31;4995238;28;20595;-75
2022/03/17 07:32:48;;;;;;;8.43;5.68;;;;;;;4.03;60.94;94818.09;4966504;28;20054;-75
2022/03/17 07:35:15;;;;;;;9.68;5.35;;;;;;;4.05;60.81;94830.00;4967667;28;20127;-75
2022/03/17 07:37:41;;;;;;;9.05;5.15;;;;;;;4.39;59.28;94821.94;4959156;28;20128;-76
2022/03/17 07:40:07;;;;;;;7.72;5.20;;;;;;;4.28;59.28;94837.59;4969320;28;20493;-75
2022/03/17 07:42:33;;;;;;;6.57;4.82;;;;;;;3.86;60.19;94815.56;4971990;28;20185;-74
2022/03/17 07:44:58;;;;;;;7.57;5.30;;;;;;;4.46;59.21;94840.94;4963866;28;20031;-75
2022/03/17 07:47:24;;;;;;;11.43;6.53;;;;;;;4.55;58.62;94839.47;4987515;28;20121;-73
2022/03/17 07:49:50;;;;;;;8.27;5.10;;;;;;;4.46;58.57;94825.94;4963763;28;20034;-74
2022/03/17 07:52:15;;;;;;;19.92;10.43;;;;;;;4.33;58.76;94801.84;4972679;28;20061;-73
2022/03/17 07:54:41;;;;;;;16.77;9.07;;;;;;;4.72;57.99;94840.13;4968968;28;20054;-73
2022/03/17 07:57:06;;;;;;;10.50;6.47;;;;;;;4.70;58.23;94836.94;4969252;28;20034;-73
2022/03/17 07:59:32;;;;;;;8.48;6.25;;;;;;;4.77;57.83;94819.09;4959157;28;20061;-74
2022/03/17 08:01:58;;;;;;;8.93;5.13;;;;;;;4.61;57.63;94822.63;4967320;28;20081;-74
2022/03/17 08:04:27;;;;;;;11.93;6.13;;;;;;;3.50;60.92;94831.97;4969273;28;20034;-74
2022/03/17 08:06:53;;;;;;;10.98;6.50;;;;;;;3.96;60.51;94809.63;4968041;28;20185;-76
2022/03/17 08:09:20;;;;;;;10.60;6.53;;;;;;;3.94;60.19;94836.19;4968526;28;20046;-75
2022/03/17 08:11:48;;;;;;;9.48;6.32;;;;;;;4.05;60.14;94805.50;4964508;28;20046;-76
2022/03/17 08:14:17;;;;;;;9.95;6.18;;;;;;;4.39;59.07;94808.75;4967360;28;20077;-75
2022/03/17 08:16:44;;;;;;;9.65;5.53;;;;;;;4.79;58.49;94838.09;4968581;28;20090;-76
2022/03/17 08:19:13;;;;;;;8.18;6.32;;;;;;;4.67;58.63;94840.09;4981390;28;20492;-74
2022/03/17 08:21:40;;;;;;;9.75;6.28;;;;;;;4.69;58.32;94822.19;4964188;28;20116;-75
2022/03/17 08:24:06;;;;;;;11.27;6.63;;;;;;;4.76;58.21;94820.13;4968091;28;20527;-74
2022/03/17 08:26:32;;;;;;;9.27;5.90;;;;;;;4.81;58.69;94833.34;4968485;28;20038;-75
2022/03/17 08:28:58;;;;;;;15.63;7.38;;;;;;;4.96;57.68;94817.66;4969844;28;20061;-75
2022/03/17 08:31:24;;;;;;;12.27;6.95;;;;;;;5.33;57.09;94844.00;4966543;28;20074;-74
2022/03/17 08:33:50;;;;;;;12.25;7.32;;;;;;;4.84;57.34;94835.50;4965350;28;20123;-75
2022/03/17 08:36:16;;;;;;;9.77;7.03;;;;;;;4.08;60.42;94840.03;4967817;28;20391;-74
2022/03/17 08:38:41;;;;;;;15.90;8.35;;;;;;;3.89;61.18;94832.69;4957208;28;20038;-74
2022/03/17 08:41:07;;;;;;;15.93;9.30;;;;;;;3.84;62.00;94838.69;4963930;28;20027;-75
2022/03/17 08:43:32;;;;;;;11.50;8.50;;;;;;;3.87;63.62;94838.19;4971633;28;20069;-74
2022/03/17 08:49:24;;;;;;;13.90;8.95;;;;;;;3.53;64.28;94831.47;4967698;28;20085;-76
2022/03/17 08:51:30;;;;;;;14.73;8.90;;;;;;;3.68;64.74;94850.06;4969099;28;20129;-74
2022/03/17 08:53:56;;;;;;;12.73;7.97;;;;;;;3.62;64.72;94808.97;4967816;28;20041;-76
2022/03/17 08:56:22;;;;;;;18.80;8.38;;;;;;;3.35;65.77;94843.88;4966428;28;20080;-74
2022/03/17 08:58:48;;;;;;;12.57;8.18;;;;;;;3.27;66.85;94827.72;4970856;28;20525;-72
2022/03/17 09:01:13;;;;;;;14.30;9.60;;;;;;;3.81;64.92;94844.47;4964834;28;20049;-72
2022/03/17 09:03:38;;;;;;;27.70;14.25;;;;;;;3.07;66.37;94837.94;4965336;28;20641;-75
2022/03/17 09:06:04;;;;;;;22.80;12.52;;;;;;;3.64;66.20;94833.97;4968248;28;20485;-74
2022/03/17 09:08:29;;;;;;;18.85;9.50;;;;;;;3.92;65.09;94851.41;4960929;28;20038;-75
2022/03/17 09:10:56;;;;;;;21.25;11.75;;;;;;;2.97;68.64;94859.63;4980404;28;20440;-74
2022/03/17 09:13:25;;;;;;;18.33;12.35;;;;;;;2.80;69.73;94869.31;4958045;28;20106;-74
2022/03/17 09:15:52;;;;;;;18.80;11.52;;;;;;;3.06;70.21;94862.63;4960397;28;20042;-74
2022/03/17 09:18:18;;;;;;;19.35;10.35;;;;;;;3.07;69.22;94854.53;4960580;28;20411;-74
2022/03/17 09:20:43;;;;;;;17.85;11.05;;;;;;;2.96;69.99;94871.97;4960951;28;20046;-75
2022/03/17 09:23:09;;;;;;;19.60;11.07;;;;;;;2.52;71.17;94884.13;4975110;28;20053;-74
2022/03/17 09:25:35;;;;;;;18.27;10.43;;;;;;;2.75;70.84;94858.72;4979909;28;20393;-74
2022/03/17 09:28:02;;;;;;;24.05;12.13;;;;;;;3.51;69.10;94886.16;4962818;28;20057;-75
2022/03/17 09:30:27;;;;;;;16.60;10.02;;;;;;;3.87;66.78;94871.63;4960524;28;20081;-75
2022/03/17 09:32:54;;;;;;;17.55;9.63;;;;;;;3.77;66.62;94859.16;4962875;28;20126;-71
2022/03/17 09:35:21;;;;;;;14.82;9.43;;;;;;;4.03;65.12;94868.91;4959449;28;20034;-74
2022/03/17 09:37:47;;;;;;;16.90;9.82;;;;;;;3.95;65.76;94905.41;4959201;28;20497;-73
2022/03/17 09:40:13;;;;;;;441.15;109.25;;;;;;;4.05;64.98;94885.28;4958040;28;20049;-74
2022/03/17 09:42:40;;;;;;;41.47;23.48;;;;;;;4.28;64.83;94906.06;4968395;28;20121;-75
2022/03/17 09:45:07;;;;;;;19.13;10.75;;;;;;;4.15;64.51;94897.75;4965522;28;20414;-75
2022/03/17 09:47:36;;;;;;;16.58;9.45;;;;;;;3.55;65.24;94910.94;4961786;28;20069;-75
2022/03/17 09:50:04;;;;;;;17.83;9.23;;;;;;;2.70;68.15;94884.91;4960562;28;20469;-74
2022/03/17 09:52:31;;;;;;;13.45;8.93;;;;;;;3.38;68.22;94898.59;4998822;28;20139;-76
2022/03/17 09:54:57;;;;;;;18.63;9.75;;;;;;;3.42;67.30;94908.66;4962372;28;20568;-75
2022/03/17 09:57:22;;;;;;;16.90;9.45;;;;;;;3.70;66.89;94905.88;4967280;28;20162;-75
2022/03/17 09:59:50;;;;;;;17.55;10.20;;;;;;;3.63;66.14;94910.50;4957616;28;20034;-75
2022/03/17 10:02:16;;;;;;;17.02;10.07;;;;;;;3.57;66.57;94909.66;4964392;28;20460;-74
2022/03/17 10:04:44;;;;;;;16.90;9.43;;;;;;;3.63;65.65;94903.41;4962383;28;20039;-75
2022/03/17 10:07:14;;;;;;;15.80;9.65;;;;;;;3.51;67.13;94909.84;4964058;28;20418;-75
2022/03/17 10:09:42;;;;;;;22.95;11.60;;;;;;;3.64;67.39;94917.38;4962740;28;20070;-74
2022/03/17 10:12:10;;;;;;;17.70;10.73;;;;;;;3.99;65.80;94919.66;4960748;28;20077;-75
2022/03/17 10:14:39;;;;;;;18.30;10.88;;;;;;;4.18;64.24;94924.38;4954324;28;20117;-73
2022/03/17 10:17:06;;;;;;;17.55;10.00;;;;;;;4.37;62.75;94905.66;4963076;28;20030;-75
2022/03/17 10:19:36;;;;;;;17.58;9.10;;;;;;;4.09;64.00;94919.78;4965542;28;20051;-75
2022/03/17 10:22:14;;;;;;;15.07;9.70;;;;;;;3.33;65.66;94916.94;4964618;28;20184;-75
2022/03/17 10:24:52;;;;;;;13.93;9.18;;;;;;;3.95;65.22;94908.03;4979379;28;20649;-75
2022/03/17 10:27:37;;;;;;;14.27;9.77;;;;;;;4.44;63.86;94916.81;4962191;28;20469;-75
2022/03/17 10:30:06;;;;;;;14.95;9.70;;;;;;;4.41;63.29;94912.81;4976986;28;20402;-76
2022/03/17 10:32:32;;;;;;;18.83;9.98;;;;;;;3.59;65.37;94919.94;4961744;28;20113;-75
2022/03/17 10:34:58;;;;;;;14.48;8.45;;;;;;;3.30;65.58;94911.38;4966362;28;20133;-74
2022/03/17 10:37:25;;;;;;;13.15;8.05;;;;;;;3.58;64.84;94907.81;4965911;28;20469;-73
2022/03/17 10:39:52;;;;;;;13.57;8.55;;;;;;;3.52;64.91;94916.69;4960277;28;20039;-75
2022/03/17 10:42:29;;;;;;;21.70;9.70;;;;;;;3.45;66.02;94914.22;4965932;28;20586;-74
2022/03/17 10:45:05;;;;;;;13.88;8.68;;;;;;;3.16;67.22;94921.41;4961270;28;20050;-74
2022/03/17 10:47:30;;;;;;;14.02;9.32;;;;;;;3.04;66.83;94904.91;4964287;28;20027;-75
2022/03/17 10:50:18;;;;;;;13.13;8.15;;;;;;;2.76;67.67;94923.38;4963428;28;20560;-75
2022/03/17 10:52:57;;;;;;;13.30;8.38;;;;;;;3.25;67.66;94927.06;4998244;28;20100;-75
2022/03/17 10:55:25;;;;;;;14.00;7.78;;;;;;;3.37;67.93;94927.78;4954163;28;21491;-75
2022/03/17 10:57:54;;;;;;;13.32;8.93;;;;;;;3.10;68.52;94927.63;4965598;28;20050;-75
2022/03/17 11:00:24;;;;;;;14.10;8.02;;;;;;;3.10;68.78;94930.25;4969926;28;20039;-74
2022/03/17 11:02:57;;;;;;;12.07;8.15;;;;;;;3.44;67.78;94923.16;4975524;28;20042;-74
2022/03/17 11:05:23;;;;;;;14.80;8.98;;;;;;;3.49;67.43;94909.28;4968583;28;20035;-74
2022/03/17 11:07:48;;;;;;;16.15;9.65;;;;;;;2.88;68.06;94906.53;4968657;28;20141;-75
2022/03/17 11:10:19;;;;;;;20.13;10.95;;;;;;;2.29;70.97;94921.00;4967767;28;20121;-75
2022/03/17 11:12:45;;;;;;;18.55;11.23;;;;;;;2.38;71.91;94918.78;4971068;28;20050;-75
2022/03/17 11:15:11;;;;;;;20.02;10.68;;;;;;;2.63;71.98;94919.25;4969065;28;20683;-72
2022/03/17 11:17:46;;;;;;;17.83;10.77;;;;;;;2.94;71.37;94910.81;4970683;28;20034;-74
2022/03/17 11:20:16;;;;;;;20.67;10.25;;;;;;;3.09;71.55;94918.16;4965938;28;20050;-73
2022/03/17 11:22:44;;;;;;;22.13;11.18;;;;;;;3.12;71.22;94894.03;4967842;28;20110;-74
2022/03/17 11:25:20;;;;;;;15.90;9.90;;;;;;;3.42;70.82;94904.19;4965042;28;20034;-76
2022/03/17 11:27:47;;;;;;;15.73;9.82;;;;;;;3.70;69.84;94921.66;4983751;28;20038;-74
2022/03/17 11:30:17;;;;;;;12.50;7.60;;;;;;;3.07;70.23;94916.81;4969590;28;20035;-75
2022/03/17 11:32:58;;;;;;;12.38;7.65;;;;;;;2.15;72.49;94903.13;4968857;28;20062;-75
2022/03/17 11:35:29;;;;;;;12.65;7.22;;;;;;;2.45;73.01;94909.72;4965226;28;20033;-74
2022/03/17 11:38:15;;;;;;;12.02;8.02;;;;;;;2.45;73.35;94914.97;4958573;28;20547;-74
2022/03/17 11:41:10;;;;;;;;;;;;;;;1.90;74.75;94908.69;4971988;28;20812;-75
2022/03/17 11:43:42;;;;;;;11.43;8.10;;;;;;;1.93;75.56;94913.44;4968180;28;20315;-75
2022/03/17 11:46:17;;;;;;;14.80;8.50;;;;;;;1.56;76.99;94905.06;4963126;28;20653;-74
2022/03/17 11:48:45;;;;;;;18.27;9.20;;;;;;;1.34;77.46;94904.84;4967807;28;20678;-74
2022/03/17 11:51:12;;;;;;;11.50;8.40;;;;;;;1.43;77.51;94895.59;4968009;28;20222;-75